Airfield :
LOGIN :

Register | Disclaimer

   EN    FR    IT 

 










Legend :    VFR   Marginal VFR   IFR   Intensive IFR   Very Intensive IFR
Visi :
Ceiling :
>= 8 km
>= 3000ft
5 to 8 km
1000 to 3000 ft
1500m to 5 km
500 to 1000 ft
800 to 1500m
200 to 500 ft
< 800m
< 200 ft
Symbols :   Thunderstorms  Fog  Heavy snow  Heavy precipitations  Wind > 20 kt
SIGMETs :     Misc.  Thunderstorms  Icing  Turbulence  Mountain Waves  Volcanic Ashes







- Airport Elevation : 510 ft


LJCE - Cerklje

CURRENT METAR :
  • 200330Z AUTO /////KT 0150 R09/0600N FZFG VV002 M00/M00 Q1018

EXPIRED METARs :
  • 200300Z AUTO /////KT 0150 R09/0600N FZFG VV002 M00/M00 Q1018
  • 200230Z AUTO /////KT 0150 R09/0600 FZFG VV002 M00/M01 Q1018
  • 200200Z AUTO /////KT 0100 R09/0500N FZFG VV002 M00/M00 Q1018
  • 200130Z AUTO /////KT 0100 R09/0500N FG VV002 00/M00 Q1018
  • 200100Z AUTO 00000KT 0150 R09///// FG VV002 00/M00 Q1018

TAF TAF LJCE
Valid from the 20 at 03:00 until the 20 at 12:00 UTC


200200Z 2003/2012 VRB02KT 0200 FZFG VV002
BECMG 2006/2009 26004KT 9999 NSW FEW005
BECMG 2009/2012 CAVOK
No reported NOTAMs for that airfield.



MET'MAP, your aeronautical weather chart ! - Copyright ORBIFLY December 2007 - Disclaimer

ORBIFLY MET'MAP TEAM :

Programming & Development : Alexandra Zaïnal
Concept & Development : Baudouin d'Aumeries
Co-Development & Prog : Marc-Olivier Méhu
Technical & hardware support : Manuel Goepfert

Contact : metmap@orbifly.com




SOURCES & CREDITS :

   NOAA